sensor_id;sensor_type;location;lat;lon;timestamp;P1;durP1;ratioP1;P2;durP2;ratioP2
81209;SDS011;70685;52.496;13.420;2023-07-28T00:01:48;1.98;;;1.88;;
81209;SDS011;70685;52.496;13.420;2023-07-28T00:04:14;1.75;;;1.65;;
81209;SDS011;70685;52.496;13.420;2023-07-28T00:06:39;1.45;;;1.40;;
81209;SDS011;70685;52.496;13.420;2023-07-28T00:09:05;1.85;;;1.75;;
81209;SDS011;70685;52.496;13.420;2023-07-28T00:11:33;2.17;;;1.88;;
81209;SDS011;70685;52.496;13.420;2023-07-28T00:13:59;1.83;;;1.73;;
81209;SDS011;70685;52.496;13.420;2023-07-28T00:16:27;2.43;;;2.33;;
81209;SDS011;70685;52.496;13.420;2023-07-28T00:18:55;3.90;;;2.53;;
81209;SDS011;70685;52.496;13.420;2023-07-28T00:21:20;19.75;;;3.40;;
81209;SDS011;70685;52.496;13.420;2023-07-28T00:23:48;3.30;;;2.63;;
81209;SDS011;70685;52.496;13.420;2023-07-28T00:26:14;2.42;;;2.30;;
81209;SDS011;70685;52.496;13.420;2023-07-28T00:28:40;4.72;;;2.97;;
81209;SDS011;70685;52.496;13.420;2023-07-28T00:31:05;2.70;;;2.50;;
81209;SDS011;70685;52.496;13.420;2023-07-28T00:33:31;3.03;;;2.83;;
81209;SDS011;70685;52.496;13.420;2023-07-28T00:35:58;2.97;;;2.72;;
81209;SDS011;70685;52.496;13.420;2023-07-28T00:38:24;4.47;;;3.70;;
81209;SDS011;70685;52.496;13.420;2023-07-28T00:40:52;10.73;;;9.82;;
81209;SDS011;70685;52.496;13.420;2023-07-28T00:43:18;7.25;;;6.47;;
81209;SDS011;70685;52.496;13.420;2023-07-28T00:45:46;7.18;;;6.53;;
81209;SDS011;70685;52.496;13.420;2023-07-28T00:48:12;5.00;;;4.70;;
81209;SDS011;70685;52.496;13.420;2023-07-28T00:50:40;3.83;;;3.63;;
81209;SDS011;70685;52.496;13.420;2023-07-28T00:53:07;4.32;;;3.90;;
81209;SDS011;70685;52.496;13.420;2023-07-28T00:55:33;3.28;;;3.08;;
81209;SDS011;70685;52.496;13.420;2023-07-28T00:57:59;3.70;;;3.40;;
81209;SDS011;70685;52.496;13.420;2023-07-28T01:00:27;5.45;;;2.80;;
81209;SDS011;70685;52.496;13.420;2023-07-28T01:02:55;3.10;;;2.60;;
81209;SDS011;70685;52.496;13.420;2023-07-28T01:05:22;2.97;;;2.78;;
81209;SDS011;70685;52.496;13.420;2023-07-28T01:08:03;2.63;;;2.42;;
81209;SDS011;70685;52.496;13.420;2023-07-28T01:10:36;2.30;;;2.20;;
81209;SDS011;70685;52.496;13.420;2023-07-28T01:13:03;2.67;;;2.42;;
81209;SDS011;70685;52.496;13.420;2023-07-28T01:15:29;2.03;;;1.92;;
81209;SDS011;70685;52.496;13.420;2023-07-28T01:17:57;3.60;;;2.28;;
81209;SDS011;70685;52.496;13.420;2023-07-28T01:20:22;2.47;;;2.28;;
81209;SDS011;70685;52.496;13.420;2023-07-28T01:28:34;3.10;;;2.78;;
81209;SDS011;70685;52.496;13.420;2023-07-28T01:31:04;3.85;;;3.55;;
81209;SDS011;70685;52.496;13.420;2023-07-28T01:33:31;3.58;;;2.40;;
81209;SDS011;70685;52.496;13.420;2023-07-28T01:35:57;4.03;;;2.53;;
81209;SDS011;70685;52.496;13.420;2023-07-28T01:38:25;3.83;;;2.50;;
81209;SDS011;70685;52.496;13.420;2023-07-28T01:40:51;5.45;;;2.67;;
81209;SDS011;70685;52.496;13.420;2023-07-28T01:43:17;3.47;;;2.50;;
81209;SDS011;70685;52.496;13.420;2023-07-28T01:45:43;3.25;;;2.30;;
81209;SDS011;70685;52.496;13.420;2023-07-28T01:48:09;2.50;;;2.22;;
81209;SDS011;70685;52.496;13.420;2023-07-28T01:50:35;2.58;;;2.47;;
81209;SDS011;70685;52.496;13.420;2023-07-28T01:53:06;2.72;;;2.53;;
81209;SDS011;70685;52.496;13.420;2023-07-28T01:55:31;2.75;;;2.50;;
81209;SDS011;70685;52.496;13.420;2023-07-28T01:57:58;4.15;;;2.80;;
81209;SDS011;70685;52.496;13.420;2023-07-28T02:00:26;3.63;;;2.20;;
81209;SDS011;70685;52.496;13.420;2023-07-28T02:02:54;4.07;;;2.80;;
81209;SDS011;70685;52.496;13.420;2023-07-28T02:05:23;3.38;;;2.38;;
81209;SDS011;70685;52.496;13.420;2023-07-28T02:07:49;3.55;;;3.20;;
81209;SDS011;70685;52.496;13.420;2023-07-28T02:10:15;3.10;;;2.80;;
81209;SDS011;70685;52.496;13.420;2023-07-28T02:12:40;4.85;;;3.50;;
81209;SDS011;70685;52.496;13.420;2023-07-28T02:15:06;3.30;;;2.75;;
81209;SDS011;70685;52.496;13.420;2023-07-28T02:17:33;4.32;;;3.22;;
81209;SDS011;70685;52.496;13.420;2023-07-28T02:20:00;4.53;;;2.88;;
81209;SDS011;70685;52.496;13.420;2023-07-28T02:22:29;3.33;;;3.13;;
81209;SDS011;70685;52.496;13.420;2023-07-28T02:24:55;3.95;;;3.60;;
81209;SDS011;70685;52.496;13.420;2023-07-28T02:27:21;3.97;;;3.60;;
81209;SDS011;70685;52.496;13.420;2023-07-28T02:29:51;4.07;;;3.78;;
81209;SDS011;70685;52.496;13.420;2023-07-28T02:32:19;3.92;;;3.63;;
81209;SDS011;70685;52.496;13.420;2023-07-28T02:34:45;5.50;;;3.60;;
81209;SDS011;70685;52.496;13.420;2023-07-28T02:37:15;4.10;;;3.72;;
81209;SDS011;70685;52.496;13.420;2023-07-28T02:39:41;4.05;;;3.45;;
81209;SDS011;70685;52.496;13.420;2023-07-28T02:42:07;4.00;;;3.60;;
81209;SDS011;70685;52.496;13.420;2023-07-28T02:44:35;3.97;;;3.67;;
81209;SDS011;70685;52.496;13.420;2023-07-28T02:47:00;5.32;;;3.38;;
81209;SDS011;70685;52.496;13.420;2023-07-28T02:49:28;4.30;;;3.90;;
81209;SDS011;70685;52.496;13.420;2023-07-28T02:51:56;5.45;;;4.20;;
81209;SDS011;70685;52.496;13.420;2023-07-28T02:54:24;4.17;;;3.77;;
81209;SDS011;70685;52.496;13.420;2023-07-28T02:56:50;3.92;;;3.47;;
81209;SDS011;70685;52.496;13.420;2023-07-28T02:59:16;4.30;;;3.85;;
81209;SDS011;70685;52.496;13.420;2023-07-28T03:01:46;3.90;;;3.55;;
81209;SDS011;70685;52.496;13.420;2023-07-28T03:04:12;4.18;;;3.78;;
81209;SDS011;70685;52.496;13.420;2023-07-28T03:06:40;6.13;;;4.20;;
81209;SDS011;70685;52.496;13.420;2023-07-28T03:09:08;5.22;;;3.97;;
81209;SDS011;70685;52.496;13.420;2023-07-28T03:11:33;4.43;;;3.27;;
81209;SDS011;70685;52.496;13.420;2023-07-28T03:13:59;4.13;;;3.85;;
81209;SDS011;70685;52.496;13.420;2023-07-28T03:16:25;5.70;;;4.35;;
81209;SDS011;70685;52.496;13.420;2023-07-28T03:18:50;4.60;;;4.20;;
81209;SDS011;70685;52.496;13.420;2023-07-28T03:21:18;5.65;;;4.05;;
81209;SDS011;70685;52.496;13.420;2023-07-28T03:23:44;4.38;;;4.07;;
81209;SDS011;70685;52.496;13.420;2023-07-28T03:26:12;4.73;;;4.40;;
81209;SDS011;70685;52.496;13.420;2023-07-28T03:28:40;4.38;;;4.07;;
81209;SDS011;70685;52.496;13.420;2023-07-28T03:31:05;7.03;;;4.72;;
81209;SDS011;70685;52.496;13.420;2023-07-28T03:33:31;6.82;;;4.18;;
81209;SDS011;70685;52.496;13.420;2023-07-28T03:35:57;4.35;;;4.05;;
81209;SDS011;70685;52.496;13.420;2023-07-28T03:38:25;6.45;;;3.90;;
81209;SDS011;70685;52.496;13.420;2023-07-28T03:40:51;5.63;;;4.57;;
81209;SDS011;70685;52.496;13.420;2023-07-28T03:43:18;5.30;;;4.90;;
81209;SDS011;70685;52.496;13.420;2023-07-28T03:45:47;10.27;;;4.63;;
81209;SDS011;70685;52.496;13.420;2023-07-28T03:48:13;8.13;;;4.68;;
81209;SDS011;70685;52.496;13.420;2023-07-28T03:50:41;6.53;;;4.63;;
81209;SDS011;70685;52.496;13.420;2023-07-28T03:53:09;6.07;;;5.47;;
81209;SDS011;70685;52.496;13.420;2023-07-28T03:55:34;4.72;;;4.38;;
81209;SDS011;70685;52.496;13.420;2023-07-28T03:58:00;4.80;;;4.40;;
81209;SDS011;70685;52.496;13.420;2023-07-28T04:00:29;7.78;;;5.80;;
81209;SDS011;70685;52.496;13.420;2023-07-28T04:02:57;7.38;;;5.15;;
81209;SDS011;70685;52.496;13.420;2023-07-28T04:05:22;9.50;;;5.00;;
81209;SDS011;70685;52.496;13.420;2023-07-28T04:07:48;5.70;;;5.18;;
81209;SDS011;70685;52.496;13.420;2023-07-28T04:10:13;5.82;;;5.15;;
81209;SDS011;70685;52.496;13.420;2023-07-28T04:12:42;6.20;;;5.03;;
81209;SDS011;70685;52.496;13.420;2023-07-28T04:15:07;7.38;;;5.40;;
81209;SDS011;70685;52.496;13.420;2023-07-28T04:17:36;5.57;;;4.80;;
81209;SDS011;70685;52.496;13.420;2023-07-28T04:20:09;5.65;;;5.18;;
81209;SDS011;70685;52.496;13.420;2023-07-28T04:22:35;7.57;;;5.47;;
81209;SDS011;70685;52.496;13.420;2023-07-28T04:25:00;5.97;;;5.38;;
81209;SDS011;70685;52.496;13.420;2023-07-28T04:27:28;5.78;;;5.32;;
81209;SDS011;70685;52.496;13.420;2023-07-28T04:29:54;7.75;;;7.05;;
81209;SDS011;70685;52.496;13.420;2023-07-28T04:32:20;5.78;;;5.28;;
81209;SDS011;70685;52.496;13.420;2023-07-28T04:34:45;7.72;;;5.97;;
81209;SDS011;70685;52.496;13.420;2023-07-28T04:37:11;6.55;;;5.90;;
81209;SDS011;70685;52.496;13.420;2023-07-28T04:39:36;5.88;;;5.38;;
81209;SDS011;70685;52.496;13.420;2023-07-28T04:42:02;8.45;;;5.82;;
81209;SDS011;70685;52.496;13.420;2023-07-28T04:44:28;6.20;;;5.70;;
81209;SDS011;70685;52.496;13.420;2023-07-28T04:46:56;5.90;;;5.50;;
81209;SDS011;70685;52.496;13.420;2023-07-28T04:49:21;5.43;;;5.13;;
81209;SDS011;70685;52.496;13.420;2023-07-28T04:51:47;8.23;;;5.53;;
81209;SDS011;70685;52.496;13.420;2023-07-28T04:54:13;7.10;;;5.60;;
81209;SDS011;70685;52.496;13.420;2023-07-28T04:56:43;6.68;;;6.18;;
81209;SDS011;70685;52.496;13.420;2023-07-28T04:59:08;7.43;;;5.80;;
81209;SDS011;70685;52.496;13.420;2023-07-28T05:01:34;6.50;;;6.00;;
81209;SDS011;70685;52.496;13.420;2023-07-28T05:04:00;7.05;;;5.88;;
81209;SDS011;70685;52.496;13.420;2023-07-28T05:06:25;6.30;;;5.80;;
81209;SDS011;70685;52.496;13.420;2023-07-28T05:08:53;6.28;;;5.88;;
81209;SDS011;70685;52.496;13.420;2023-07-28T05:11:21;6.30;;;5.78;;
81209;SDS011;70685;52.496;13.420;2023-07-28T05:13:47;6.87;;;6.27;;
81209;SDS011;70685;52.496;13.420;2023-07-28T05:16:14;5.75;;;5.10;;
81209;SDS011;70685;52.496;13.420;2023-07-28T05:18:40;5.82;;;5.45;;
81209;SDS011;70685;52.496;13.420;2023-07-28T05:21:10;5.90;;;5.38;;
81209;SDS011;70685;52.496;13.420;2023-07-28T05:23:35;7.32;;;5.80;;
81209;SDS011;70685;52.496;13.420;2023-07-28T05:26:01;6.47;;;5.97;;
81209;SDS011;70685;52.496;13.420;2023-07-28T05:28:33;7.60;;;5.47;;
81209;SDS011;70685;52.496;13.420;2023-07-28T05:31:06;6.60;;;5.70;;
81209;SDS011;70685;52.496;13.420;2023-07-28T05:33:32;6.47;;;5.97;;
81209;SDS011;70685;52.496;13.420;2023-07-28T05:36:01;6.78;;;6.38;;
81209;SDS011;70685;52.496;13.420;2023-07-28T05:38:28;7.32;;;6.00;;
81209;SDS011;70685;52.496;13.420;2023-07-28T05:41:00;5.65;;;5.32;;
81209;SDS011;70685;52.496;13.420;2023-07-28T05:43:28;6.57;;;5.97;;
81209;SDS011;70685;52.496;13.420;2023-07-28T05:45:57;6.20;;;5.70;;
81209;SDS011;70685;52.496;13.420;2023-07-28T05:48:24;8.35;;;5.78;;
81209;SDS011;70685;52.496;13.420;2023-07-28T05:50:50;5.47;;;5.18;;
81209;SDS011;70685;52.496;13.420;2023-07-28T05:53:19;6.22;;;5.57;;
81209;SDS011;70685;52.496;13.420;2023-07-28T05:55:46;6.05;;;5.32;;
81209;SDS011;70685;52.496;13.420;2023-07-28T05:58:12;6.10;;;5.60;;
81209;SDS011;70685;52.496;13.420;2023-07-28T06:00:38;5.95;;;5.38;;
81209;SDS011;70685;52.496;13.420;2023-07-28T06:03:05;5.30;;;4.97;;
81209;SDS011;70685;52.496;13.420;2023-07-28T06:05:41;5.25;;;4.40;;
81209;SDS011;70685;52.496;13.420;2023-07-28T06:08:10;8.07;;;5.63;;
81209;SDS011;70685;52.496;13.420;2023-07-28T06:10:36;4.93;;;4.53;;
81209;SDS011;70685;52.496;13.420;2023-07-28T06:13:02;5.68;;;5.28;;
81209;SDS011;70685;52.496;13.420;2023-07-28T06:15:27;6.00;;;5.60;;
81209;SDS011;70685;52.496;13.420;2023-07-28T06:17:53;5.70;;;5.30;;
81209;SDS011;70685;52.496;13.420;2023-07-28T06:20:21;6.35;;;5.78;;
81209;SDS011;70685;52.496;13.420;2023-07-28T06:22:52;6.55;;;6.10;;
81209;SDS011;70685;52.496;13.420;2023-07-28T06:25:17;6.50;;;6.00;;
81209;SDS011;70685;52.496;13.420;2023-07-28T06:27:43;7.15;;;6.35;;
81209;SDS011;70685;52.496;13.420;2023-07-28T06:30:08;6.90;;;5.97;;
81209;SDS011;70685;52.496;13.420;2023-07-28T06:32:37;6.57;;;5.80;;
81209;SDS011;70685;52.496;13.420;2023-07-28T06:35:05;6.00;;;5.60;;
81209;SDS011;70685;52.496;13.420;2023-07-28T06:37:32;5.57;;;5.18;;
81209;SDS011;70685;52.496;13.420;2023-07-28T06:39:58;5.85;;;5.20;;
81209;SDS011;70685;52.496;13.420;2023-07-28T06:42:24;5.53;;;5.10;;
81209;SDS011;70685;52.496;13.420;2023-07-28T06:44:52;5.88;;;4.82;;
81209;SDS011;70685;52.496;13.420;2023-07-28T06:47:18;4.47;;;4.15;;
81209;SDS011;70685;52.496;13.420;2023-07-28T06:49:46;5.43;;;4.90;;
81209;SDS011;70685;52.496;13.420;2023-07-28T06:52:12;4.93;;;4.53;;
81209;SDS011;70685;52.496;13.420;2023-07-28T06:54:39;5.47;;;4.85;;
81209;SDS011;70685;52.496;13.420;2023-07-28T06:57:05;7.53;;;5.20;;
81209;SDS011;70685;52.496;13.420;2023-07-28T06:59:35;5.50;;;4.97;;
81209;SDS011;70685;52.496;13.420;2023-07-28T07:02:01;5.82;;;4.47;;
81209;SDS011;70685;52.496;13.420;2023-07-28T07:04:30;6.38;;;3.80;;
81209;SDS011;70685;52.496;13.420;2023-07-28T07:07:00;5.97;;;4.47;;
81209;SDS011;70685;52.496;13.420;2023-07-28T07:09:27;5.20;;;4.75;;
81209;SDS011;70685;52.496;13.420;2023-07-28T07:11:53;3.80;;;3.50;;
81209;SDS011;70685;52.496;13.420;2023-07-28T07:14:21;3.83;;;3.63;;
81209;SDS011;70685;52.496;13.420;2023-07-28T07:16:48;4.35;;;4.05;;
81209;SDS011;70685;52.496;13.420;2023-07-28T07:19:18;3.92;;;3.72;;
81209;SDS011;70685;52.496;13.420;2023-07-28T07:21:44;3.70;;;3.40;;
81209;SDS011;70685;52.496;13.420;2023-07-28T07:24:10;3.28;;;3.10;;
81209;SDS011;70685;52.496;13.420;2023-07-28T07:26:38;3.35;;;3.15;;
81209;SDS011;70685;52.496;13.420;2023-07-28T07:29:04;3.22;;;2.90;;
81209;SDS011;70685;52.496;13.420;2023-07-28T07:31:30;2.65;;;2.55;;
81209;SDS011;70685;52.496;13.420;2023-07-28T07:33:58;4.20;;;2.78;;
81209;SDS011;70685;52.496;13.420;2023-07-28T07:36:26;5.18;;;2.35;;
81209;SDS011;70685;52.496;13.420;2023-07-28T07:38:52;2.72;;;2.53;;
81209;SDS011;70685;52.496;13.420;2023-07-28T07:41:17;2.20;;;2.10;;
81209;SDS011;70685;52.496;13.420;2023-07-28T07:43:49;2.65;;;2.08;;
81209;SDS011;70685;52.496;13.420;2023-07-28T07:46:20;2.35;;;2.25;;
81209;SDS011;70685;52.496;13.420;2023-07-28T07:48:48;7.05;;;4.07;;
81209;SDS011;70685;52.496;13.420;2023-07-28T07:51:14;2.60;;;2.08;;
81209;SDS011;70685;52.496;13.420;2023-07-28T07:53:40;1.70;;;1.60;;
81209;SDS011;70685;52.496;13.420;2023-07-28T07:56:06;2.28;;;1.67;;
81209;SDS011;70685;52.496;13.420;2023-07-28T07:58:39;2.95;;;1.67;;
81209;SDS011;70685;52.496;13.420;2023-07-28T08:01:06;2.00;;;1.83;;
81209;SDS011;70685;52.496;13.420;2023-07-28T08:03:32;1.83;;;1.70;;
81209;SDS011;70685;52.496;13.420;2023-07-28T08:05:58;1.42;;;1.42;;
81209;SDS011;70685;52.496;13.420;2023-07-28T08:08:24;1.52;;;0.95;;
81209;SDS011;70685;52.496;13.420;2023-07-28T08:10:52;1.45;;;1.35;;
81209;SDS011;70685;52.496;13.420;2023-07-28T08:13:20;1.35;;;0.98;;
81209;SDS011;70685;52.496;13.420;2023-07-28T08:15:50;1.10;;;1.10;;
81209;SDS011;70685;52.496;13.420;2023-07-28T08:20:57;1.10;;;1.00;;
81209;SDS011;70685;52.496;13.420;2023-07-28T08:23:28;1.15;;;1.15;;
81209;SDS011;70685;52.496;13.420;2023-07-28T08:25:54;1.50;;;1.00;;
81209;SDS011;70685;52.496;13.420;2023-07-28T08:28:22;1.65;;;0.80;;
81209;SDS011;70685;52.496;13.420;2023-07-28T08:31:00;1.42;;;1.30;;
81209;SDS011;70685;52.496;13.420;2023-07-28T08:33:29;1.05;;;0.93;;
81209;SDS011;70685;52.496;13.420;2023-07-28T08:35:55;1.33;;;1.10;;
81209;SDS011;70685;52.496;13.420;2023-07-28T08:38:36;2.85;;;1.20;;
81209;SDS011;70685;52.496;13.420;2023-07-28T08:41:02;1.10;;;1.10;;
81209;SDS011;70685;52.496;13.420;2023-07-28T08:43:28;0.80;;;0.80;;
81209;SDS011;70685;52.496;13.420;2023-07-28T08:45:54;1.75;;;0.95;;
81209;SDS011;70685;52.496;13.420;2023-07-28T08:48:22;1.02;;;0.90;;
81209;SDS011;70685;52.496;13.420;2023-07-28T08:50:54;2.38;;;1.02;;
81209;SDS011;70685;52.496;13.420;2023-07-28T08:53:19;1.83;;;0.70;;
81209;SDS011;70685;52.496;13.420;2023-07-28T08:55:47;0.93;;;0.93;;
81209;SDS011;70685;52.496;13.420;2023-07-28T08:58:14;1.02;;;1.02;;
81209;SDS011;70685;52.496;13.420;2023-07-28T09:00:40;2.00;;;0.95;;
81209;SDS011;70685;52.496;13.420;2023-07-28T09:03:09;1.13;;;1.13;;
81209;SDS011;70685;52.496;13.420;2023-07-28T09:05:39;1.65;;;1.55;;
81209;SDS011;70685;52.496;13.420;2023-07-28T09:08:07;4.18;;;1.40;;
81209;SDS011;70685;52.496;13.420;2023-07-28T09:10:46;1.20;;;1.10;;
81209;SDS011;70685;52.496;13.420;2023-07-28T09:13:16;3.70;;;1.40;;
81209;SDS011;70685;52.496;13.420;2023-07-28T09:15:44;1.10;;;1.00;;
81209;SDS011;70685;52.496;13.420;2023-07-28T09:18:10;1.35;;;1.10;;
81209;SDS011;70685;52.496;13.420;2023-07-28T09:20:40;1.40;;;1.30;;
81209;SDS011;70685;52.496;13.420;2023-07-28T09:23:06;1.30;;;1.30;;
81209;SDS011;70685;52.496;13.420;2023-07-28T09:25:35;1.30;;;1.20;;
81209;SDS011;70685;52.496;13.420;2023-07-28T09:28:05;1.05;;;0.80;;
81209;SDS011;70685;52.496;13.420;2023-07-28T09:30:47;1.00;;;1.00;;
81209;SDS011;70685;52.496;13.420;2023-07-28T09:33:32;0.88;;;0.82;;
81209;SDS011;70685;52.496;13.420;2023-07-28T09:36:06;1.05;;;1.05;;
81209;SDS011;70685;52.496;13.420;2023-07-28T09:38:33;0.80;;;0.80;;
81209;SDS011;70685;52.496;13.420;2023-07-28T09:41:04;0.95;;;0.95;;
81209;SDS011;70685;52.496;13.420;2023-07-28T09:43:34;0.98;;;0.98;;
81209;SDS011;70685;52.496;13.420;2023-07-28T09:46:04;1.58;;;0.90;;
81209;SDS011;70685;52.496;13.420;2023-07-28T09:48:31;2.38;;;1.45;;
81209;SDS011;70685;52.496;13.420;2023-07-28T09:51:02;2.38;;;0.98;;
81209;SDS011;70685;52.496;13.420;2023-07-28T09:53:42;0.90;;;0.90;;
81209;SDS011;70685;52.496;13.420;2023-07-28T09:56:12;2.35;;;0.90;;
81209;SDS011;70685;52.496;13.420;2023-07-28T09:58:41;1.52;;;1.00;;
81209;SDS011;70685;52.496;13.420;2023-07-28T10:01:14;0.70;;;0.70;;
81209;SDS011;70685;52.496;13.420;2023-07-28T10:03:40;1.23;;;0.73;;
81209;SDS011;70685;52.496;13.420;2023-07-28T10:06:06;0.88;;;0.88;;
81209;SDS011;70685;52.496;13.420;2023-07-28T10:08:32;1.13;;;1.02;;
81209;SDS011;70685;52.496;13.420;2023-07-28T10:11:07;1.88;;;1.00;;
81209;SDS011;70685;52.496;13.420;2023-07-28T10:13:39;1.33;;;1.10;;
81209;SDS011;70685;52.496;13.420;2023-07-28T10:16:09;1.00;;;1.00;;
81209;SDS011;70685;52.496;13.420;2023-07-28T10:18:35;1.40;;;1.40;;
81209;SDS011;70685;52.496;13.420;2023-07-28T10:21:05;1.08;;;1.08;;
81209;SDS011;70685;52.496;13.420;2023-07-28T10:23:38;1.40;;;1.30;;
81209;SDS011;70685;52.496;13.420;2023-07-28T10:26:06;1.52;;;1.20;;
81209;SDS011;70685;52.496;13.420;2023-07-28T10:28:38;1.10;;;1.10;;
81209;SDS011;70685;52.496;13.420;2023-07-28T10:31:07;2.15;;;1.23;;
81209;SDS011;70685;52.496;13.420;2023-07-28T10:38:40;1.63;;;1.52;;
81209;SDS011;70685;52.496;13.420;2023-07-28T10:41:15;1.80;;;1.70;;
81209;SDS011;70685;52.496;13.420;2023-07-28T10:43:43;2.90;;;1.40;;
81209;SDS011;70685;52.496;13.420;2023-07-28T10:46:10;2.30;;;2.10;;
81209;SDS011;70685;52.496;13.420;2023-07-28T10:48:43;2.35;;;1.70;;
81209;SDS011;70685;52.496;13.420;2023-07-28T10:51:10;2.00;;;1.90;;
81209;SDS011;70685;52.496;13.420;2023-07-28T10:53:37;1.45;;;1.45;;
81209;SDS011;70685;52.496;13.420;2023-07-28T10:56:05;1.58;;;1.50;;
81209;SDS011;70685;52.496;13.420;2023-07-28T11:01:04;2.00;;;1.73;;
81209;SDS011;70685;52.496;13.420;2023-07-28T11:03:30;2.00;;;1.90;;
81209;SDS011;70685;52.496;13.420;2023-07-28T11:05:55;1.77;;;1.67;;
81209;SDS011;70685;52.496;13.420;2023-07-28T11:08:23;1.60;;;1.50;;
81209;SDS011;70685;52.496;13.420;2023-07-28T11:10:50;0.90;;;0.90;;
81209;SDS011;70685;52.496;13.420;2023-07-28T11:13:18;1.80;;;1.23;;
81209;SDS011;70685;52.496;13.420;2023-07-28T11:15:43;2.70;;;1.70;;
81209;SDS011;70685;52.496;13.420;2023-07-28T11:18:09;4.05;;;1.40;;
81209;SDS011;70685;52.496;13.420;2023-07-28T11:20:37;2.57;;;1.90;;
81209;SDS011;70685;52.496;13.420;2023-07-28T11:23:03;3.80;;;1.85;;
81209;SDS011;70685;52.496;13.420;2023-07-28T11:25:31;1.95;;;1.85;;
81209;SDS011;70685;52.496;13.420;2023-07-28T11:28:01;6.07;;;2.25;;
81209;SDS011;70685;52.496;13.420;2023-07-28T11:30:30;2.72;;;2.53;;
81209;SDS011;70685;52.496;13.420;2023-07-28T11:32:57;4.18;;;2.22;;
81209;SDS011;70685;52.496;13.420;2023-07-28T11:35:25;1.88;;;1.77;;
81209;SDS011;70685;52.496;13.420;2023-07-28T11:37:51;2.15;;;2.05;;
81209;SDS011;70685;52.496;13.420;2023-07-28T11:40:19;2.25;;;2.15;;
81209;SDS011;70685;52.496;13.420;2023-07-28T11:42:53;4.53;;;2.00;;
81209;SDS011;70685;52.496;13.420;2023-07-28T11:45:20;3.95;;;2.47;;
81209;SDS011;70685;52.496;13.420;2023-07-28T11:50:25;2.92;;;2.60;;
81209;SDS011;70685;52.496;13.420;2023-07-28T11:52:57;2.58;;;2.30;;
81209;SDS011;70685;52.496;13.420;2023-07-28T11:55:23;4.00;;;2.17;;
81209;SDS011;70685;52.496;13.420;2023-07-28T11:57:52;2.08;;;1.70;;
81209;SDS011;70685;52.496;13.420;2023-07-28T12:00:18;2.03;;;1.92;;
81209;SDS011;70685;52.496;13.420;2023-07-28T12:02:59;1.63;;;1.52;;
81209;SDS011;70685;52.496;13.420;2023-07-28T12:05:29;2.20;;;1.97;;
81209;SDS011;70685;52.496;13.420;2023-07-28T12:08:00;2.30;;;2.15;;
81209;SDS011;70685;52.496;13.420;2023-07-28T12:10:26;1.52;;;1.48;;
81209;SDS011;70685;52.496;13.420;2023-07-28T12:12:52;1.70;;;1.60;;
81209;SDS011;70685;52.496;13.420;2023-07-28T12:18:14;2.33;;;1.80;;
81209;SDS011;70685;52.496;13.420;2023-07-28T12:20:48;4.25;;;1.50;;
81209;SDS011;70685;52.496;13.420;2023-07-28T12:23:18;2.67;;;2.47;;
81209;SDS011;70685;52.496;13.420;2023-07-28T12:25:45;3.70;;;3.50;;
81209;SDS011;70685;52.496;13.420;2023-07-28T12:28:11;4.60;;;1.90;;
81209;SDS011;70685;52.496;13.420;2023-07-28T12:30:37;2.97;;;2.60;;
81209;SDS011;70685;52.496;13.420;2023-07-28T12:33:10;5.93;;;2.00;;
81209;SDS011;70685;52.496;13.420;2023-07-28T12:35:39;3.03;;;2.33;;
81209;SDS011;70685;52.496;13.420;2023-07-28T12:38:04;1.83;;;1.73;;
81209;SDS011;70685;52.496;13.420;2023-07-28T12:40:33;1.60;;;1.48;;
81209;SDS011;70685;52.496;13.420;2023-07-28T12:43:00;2.70;;;2.20;;
81209;SDS011;70685;52.496;13.420;2023-07-28T12:45:27;2.30;;;2.20;;
81209;SDS011;70685;52.496;13.420;2023-07-28T12:47:53;1.85;;;1.60;;
81209;SDS011;70685;52.496;13.420;2023-07-28T12:50:19;4.35;;;2.10;;
81209;SDS011;70685;52.496;13.420;2023-07-28T12:52:48;1.88;;;1.77;;
81209;SDS011;70685;52.496;13.420;2023-07-28T12:57:40;1.75;;;1.65;;
81209;SDS011;70685;52.496;13.420;2023-07-28T13:00:06;1.65;;;1.55;;
81209;SDS011;70685;52.496;13.420;2023-07-28T13:02:46;1.55;;;1.45;;
81209;SDS011;70685;52.496;13.420;2023-07-28T13:05:29;1.80;;;1.70;;
81209;SDS011;70685;52.496;13.420;2023-07-28T13:07:55;2.83;;;1.67;;
81209;SDS011;70685;52.496;13.420;2023-07-28T13:10:21;3.58;;;1.38;;
81209;SDS011;70685;52.496;13.420;2023-07-28T13:12:46;1.67;;;1.58;;
81209;SDS011;70685;52.496;13.420;2023-07-28T13:15:12;2.05;;;1.90;;
81209;SDS011;70685;52.496;13.420;2023-07-28T13:17:38;1.85;;;1.70;;
81209;SDS011;70685;52.496;13.420;2023-07-28T13:20:04;1.77;;;1.67;;
81209;SDS011;70685;52.496;13.420;2023-07-28T13:22:31;1.60;;;1.50;;
81209;SDS011;70685;52.496;13.420;2023-07-28T13:24:57;1.90;;;1.77;;
81209;SDS011;70685;52.496;13.420;2023-07-28T13:27:23;2.00;;;1.90;;
81209;SDS011;70685;52.496;13.420;2023-07-28T13:29:48;2.10;;;2.00;;
81209;SDS011;70685;52.496;13.420;2023-07-28T13:32:17;1.80;;;1.70;;
81209;SDS011;70685;52.496;13.420;2023-07-28T13:34:50;2.55;;;2.00;;
81209;SDS011;70685;52.496;13.420;2023-07-28T13:37:22;3.92;;;1.60;;
81209;SDS011;70685;52.496;13.420;2023-07-28T13:39:55;2.50;;;2.00;;
81209;SDS011;70685;52.496;13.420;2023-07-28T13:42:23;2.38;;;2.17;;
81209;SDS011;70685;52.496;13.420;2023-07-28T13:44:51;1.98;;;1.88;;
81209;SDS011;70685;52.496;13.420;2023-07-28T13:47:17;2.42;;;2.33;;
81209;SDS011;70685;52.496;13.420;2023-07-28T13:49:45;2.20;;;2.10;;
81209;SDS011;70685;52.496;13.420;2023-07-28T13:52:13;1.93;;;1.83;;
81209;SDS011;70685;52.496;13.420;2023-07-28T13:54:38;2.20;;;2.10;;
81209;SDS011;70685;52.496;13.420;2023-07-28T13:57:04;3.17;;;1.98;;
81209;SDS011;70685;52.496;13.420;2023-07-28T13:59:30;2.35;;;1.88;;
81209;SDS011;70685;52.496;13.420;2023-07-28T14:01:56;2.03;;;1.92;;
81209;SDS011;70685;52.496;13.420;2023-07-28T14:04:23;1.92;;;1.83;;
81209;SDS011;70685;52.496;13.420;2023-07-28T14:06:51;1.90;;;1.80;;
81209;SDS011;70685;52.496;13.420;2023-07-28T14:09:17;2.10;;;2.00;;
81209;SDS011;70685;52.496;13.420;2023-07-28T14:11:45;2.00;;;1.90;;
81209;SDS011;70685;52.496;13.420;2023-07-28T14:14:16;1.83;;;1.80;;
81209;SDS011;70685;52.496;13.420;2023-07-28T14:16:42;1.90;;;1.80;;
81209;SDS011;70685;52.496;13.420;2023-07-28T14:19:09;1.80;;;1.70;;
81209;SDS011;70685;52.496;13.420;2023-07-28T14:21:35;1.65;;;1.55;;
81209;SDS011;70685;52.496;13.420;2023-07-28T14:24:04;1.63;;;1.57;;
81209;SDS011;70685;52.496;13.420;2023-07-28T14:26:38;1.70;;;1.60;;
81209;SDS011;70685;52.496;13.420;2023-07-28T14:29:14;1.80;;;1.70;;
81209;SDS011;70685;52.496;13.420;2023-07-28T14:31:49;1.98;;;1.70;;
81209;SDS011;70685;52.496;13.420;2023-07-28T14:34:15;1.73;;;1.63;;
81209;SDS011;70685;52.496;13.420;2023-07-28T14:36:40;1.20;;;1.20;;
81209;SDS011;70685;52.496;13.420;2023-07-28T14:39:09;1.23;;;1.23;;
81209;SDS011;70685;52.496;13.420;2023-07-28T14:41:35;1.13;;;1.10;;
81209;SDS011;70685;52.496;13.420;2023-07-28T14:44:01;1.52;;;1.42;;
81209;SDS011;70685;52.496;13.420;2023-07-28T14:46:29;2.60;;;1.40;;
81209;SDS011;70685;52.496;13.420;2023-07-28T14:48:55;1.38;;;1.30;;
81209;SDS011;70685;52.496;13.420;2023-07-28T14:51:23;1.17;;;1.17;;
81209;SDS011;70685;52.496;13.420;2023-07-28T14:53:49;1.27;;;1.27;;
81209;SDS011;70685;52.496;13.420;2023-07-28T14:56:17;1.50;;;1.50;;
81209;SDS011;70685;52.496;13.420;2023-07-28T14:58:43;1.85;;;1.10;;
81209;SDS011;70685;52.496;13.420;2023-07-28T15:01:11;1.23;;;1.15;;